createdAt,value
2018-06-25T00:01:06.941Z,80.81
2018-06-25T00:03:36.033Z,80.54
2018-06-25T00:06:05.179Z,80.43
2018-06-25T00:08:34.273Z,80.50
2018-06-25T00:11:03.344Z,81.16
2018-06-25T00:13:32.432Z,80.49
2018-06-25T00:16:01.509Z,80.55
2018-06-25T00:18:30.600Z,80.81
2018-06-25T00:20:59.700Z,81.16
2018-06-25T00:23:28.799Z,81.00
2018-06-25T00:25:57.880Z,81.04
2018-06-25T00:28:26.947Z,80.74
2018-06-25T00:30:56.045Z,81.62
2018-06-25T00:33:25.135Z,81.23
2018-06-25T00:35:54.224Z,80.74
2018-06-25T00:38:23.300Z,80.92
2018-06-25T00:40:52.393Z,80.61
2018-06-25T00:43:21.455Z,80.63
2018-06-25T00:45:50.557Z,81.80
2018-06-25T00:48:19.627Z,80.56
2018-06-25T00:50:48.788Z,81.43
2018-06-25T00:53:17.860Z,81.17
2018-06-25T00:55:46.951Z,81.44
2018-06-25T00:58:16.024Z,81.82
2018-06-25T01:00:45.120Z,80.95
2018-06-25T01:03:14.192Z,81.64
2018-06-25T01:05:43.288Z,81.37
2018-06-25T01:08:12.355Z,81.84
2018-06-25T01:10:41.452Z,81.77
2018-06-25T01:13:10.524Z,81.72
2018-06-25T01:15:39.635Z,81.36
2018-06-25T01:18:08.708Z,81.68
2018-06-25T01:20:37.869Z,81.94
2018-06-25T01:23:06.945Z,81.09
2018-06-25T01:25:36.041Z,81.69
2018-06-25T01:28:05.416Z,81.34
2018-06-25T01:30:34.512Z,80.87
2018-06-25T01:33:03.592Z,80.62
2018-06-25T01:35:32.681Z,81.45
2018-06-25T01:38:01.757Z,81.08
2018-06-25T01:40:30.892Z,81.79
2018-06-25T01:42:59.969Z,81.58
2018-06-25T01:45:29.076Z,81.45
2018-06-25T01:47:58.146Z,81.42
2018-06-25T01:50:27.444Z,81.19
2018-06-25T01:52:56.560Z,80.93
2018-06-25T01:55:25.632Z,81.37
2018-06-25T01:57:54.727Z,81.38
2018-06-25T02:00:23.803Z,81.47
2018-06-25T02:02:52.893Z,80.50
2018-06-25T02:05:21.964Z,81.71
2018-06-25T02:07:51.065Z,81.93
2018-06-25T02:10:20.148Z,81.61
2018-06-25T02:12:49.243Z,81.97
2018-06-25T02:15:18.332Z,81.27
2018-06-25T02:17:47.424Z,81.45
2018-06-25T02:20:16.496Z,81.13
2018-06-25T02:22:51.925Z,81.30
2018-06-25T02:25:20.995Z,81.55
2018-06-25T02:27:50.088Z,81.44
2018-06-25T02:30:19.169Z,81.18
2018-06-25T02:32:48.257Z,81.36
2018-06-25T02:35:17.337Z,81.70
2018-06-25T02:37:46.433Z,81.39
2018-06-25T02:40:15.512Z,81.63
2018-06-25T02:42:44.613Z,81.27
2018-06-25T02:45:13.684Z,81.09
2018-06-25T02:47:42.781Z,81.34
2018-06-25T02:50:11.853Z,81.23
2018-06-25T02:52:40.968Z,80.90
2018-06-25T02:55:10.053Z,81.29
2018-06-25T02:57:39.144Z,80.63
2018-06-25T03:00:08.223Z,80.98
2018-06-25T03:02:37.332Z,81.11
2018-06-25T03:05:06.421Z,81.48
2018-06-25T03:07:35.493Z,81.55
2018-06-25T03:10:04.626Z,81.29
2018-06-25T03:12:33.701Z,81.30
2018-06-25T03:15:02.798Z,81.25
2018-06-25T03:17:31.868Z,81.57
2018-06-25T03:20:00.964Z,81.36
2018-06-25T03:22:30.036Z,81.72
2018-06-25T03:24:59.139Z,81.56
2018-06-25T03:27:28.219Z,81.31
2018-06-25T03:29:57.320Z,81.68
2018-06-25T03:32:26.407Z,81.69
2018-06-25T03:34:55.505Z,82.20
2018-06-25T03:37:24.596Z,81.31
2018-06-25T03:39:53.704Z,81.32
2018-06-25T03:42:22.804Z,81.64
2018-06-25T03:44:51.909Z,81.12
2018-06-25T03:47:20.985Z,81.08
2018-06-25T03:49:50.600Z,81.11
2018-06-25T03:52:19.704Z,81.38
2018-06-25T03:54:48.804Z,80.99
2018-06-25T03:57:17.885Z,80.92
2018-06-25T03:59:46.987Z,80.85
2018-06-25T04:02:16.068Z,80.30
2018-06-25T04:04:45.177Z,80.86
2018-06-25T04:07:14.256Z,80.38
2018-06-25T04:09:43.375Z,81.36
2018-06-25T04:12:12.511Z,81.28
2018-06-25T04:18:49.520Z,81.15
2018-06-25T04:21:19.642Z,82.20
2018-06-25T04:23:48.751Z,81.84
2018-06-25T04:26:17.853Z,81.82
2018-06-25T04:28:46.944Z,81.65
2018-06-25T04:31:16.057Z,81.37
2018-06-25T04:33:45.839Z,81.60
2018-06-25T04:36:14.941Z,81.66
2018-06-25T04:38:44.450Z,80.81
2018-06-25T04:41:13.901Z,81.07
2018-06-25T04:43:43.481Z,80.73
2018-06-25T04:46:12.912Z,80.40
2018-06-25T04:48:42.285Z,81.15
2018-06-25T04:51:11.417Z,80.76
2018-06-25T04:53:41.364Z,80.46
2018-06-25T04:56:11.105Z,80.77
2018-06-25T04:58:40.208Z,80.04
2018-06-25T05:01:09.300Z,80.53
2018-06-25T05:03:38.911Z,80.14
2018-06-25T05:06:08.003Z,80.64
2018-06-25T05:08:37.101Z,81.14
2018-06-25T05:11:06.177Z,81.48
2018-06-25T05:13:35.276Z,80.73
2018-06-25T05:16:04.380Z,81.04
2018-06-25T05:18:33.629Z,80.80
2018-06-25T05:21:02.780Z,80.52
2018-06-25T05:23:31.856Z,81.26
2018-06-25T05:26:00.928Z,81.07
2018-06-25T05:28:30.038Z,80.75
2018-06-25T05:30:59.112Z,80.85
2018-06-25T05:33:28.220Z,81.07
2018-06-25T05:35:57.297Z,80.00
2018-06-25T05:38:26.391Z,80.27
2018-06-25T05:40:55.485Z,80.65
2018-06-25T05:43:25.013Z,80.28
2018-06-25T05:45:54.087Z,80.06
2018-06-25T05:48:23.196Z,79.92
2018-06-25T05:50:52.268Z,80.05
2018-06-25T05:53:21.464Z,79.71
2018-06-25T05:55:50.552Z,80.01
2018-06-25T05:58:19.668Z,80.12
2018-06-25T06:00:48.768Z,79.54
2018-06-25T06:03:17.889Z,80.09
2018-06-25T06:05:47.005Z,80.34
2018-06-25T06:08:16.148Z,79.42
2018-06-25T06:10:45.252Z,79.55
2018-06-25T06:13:14.391Z,79.71
2018-06-25T06:15:43.494Z,79.46
2018-06-25T06:18:12.595Z,79.32
2018-06-25T06:20:41.712Z,79.23
2018-06-25T06:23:10.804Z,78.66
2018-06-25T06:25:39.940Z,78.71
2018-06-25T06:28:09.049Z,79.09
2018-06-25T06:30:38.176Z,78.48
2018-06-25T06:33:07.273Z,79.06
2018-06-25T06:35:36.388Z,79.54
2018-06-25T06:38:05.811Z,79.51
2018-06-25T06:40:34.953Z,78.22
2018-06-25T06:43:04.195Z,79.02
2018-06-25T06:45:33.308Z,79.71
2018-06-25T06:48:02.409Z,79.63
2018-06-25T06:50:31.523Z,79.72
2018-06-25T06:53:00.668Z,79.47
2018-06-25T06:55:29.821Z,79.78
2018-06-25T06:57:58.938Z,79.88
2018-06-25T07:00:28.037Z,79.32
2018-06-25T07:02:57.116Z,79.47
2018-06-25T07:05:26.236Z,79.62
2018-06-25T07:07:55.321Z,79.38
2018-06-25T07:10:24.449Z,79.97
2018-06-25T07:12:53.505Z,79.25
2018-06-25T07:15:22.599Z,77.42
2018-06-25T07:17:51.676Z,79.13
2018-06-25T07:20:20.776Z,78.71
2018-06-25T07:22:49.852Z,79.05
2018-06-25T07:25:18.953Z,78.49
2018-06-25T07:27:48.042Z,78.83
2018-06-25T07:30:17.140Z,79.13
2018-06-25T07:32:46.224Z,78.57
2018-06-25T07:35:15.339Z,78.26
2018-06-25T07:37:44.424Z,77.39
2018-06-25T07:40:13.540Z,78.70
2018-06-25T07:42:42.620Z,78.06
2018-06-25T07:45:11.753Z,75.81
2018-06-25T07:47:40.853Z,76.96
2018-06-25T07:50:09.919Z,77.59
2018-06-25T07:52:39.045Z,76.82
2018-06-25T07:55:08.124Z,77.29
2018-06-25T07:57:37.224Z,77.14
2018-06-25T08:00:06.617Z,76.29
2018-06-25T08:02:35.735Z,75.33
2018-06-25T08:05:04.922Z,75.85
2018-06-25T08:07:34.031Z,75.27
2018-06-25T08:10:03.181Z,74.09
2018-06-25T08:12:32.228Z,75.87
2018-06-25T08:15:01.309Z,75.44
2018-06-25T08:17:30.428Z,75.82
2018-06-25T08:19:59.503Z,75.67
2018-06-25T08:22:28.610Z,75.57
2018-06-25T08:24:57.701Z,75.83
2018-06-25T08:27:26.804Z,75.53
2018-06-25T08:29:55.933Z,75.11
2018-06-25T08:32:24.991Z,74.52
2018-06-25T08:34:54.082Z,74.99
2018-06-25T08:37:23.193Z,74.55
2018-06-25T08:39:52.280Z,74.22
2018-06-25T08:42:21.399Z,73.88
2018-06-25T08:44:50.487Z,73.49
2018-06-25T08:47:19.600Z,73.22
2018-06-25T08:49:48.691Z,73.58
2018-06-25T08:52:17.852Z,71.79
2018-06-25T08:54:47.981Z,71.57
2018-06-25T08:57:17.416Z,71.72
2018-06-25T08:59:46.485Z,72.36
2018-06-25T09:02:15.556Z,69.92
2018-06-25T09:04:44.655Z,68.78
2018-06-25T09:07:13.740Z,66.72
2018-06-25T09:09:42.830Z,65.78
2018-06-25T09:12:11.900Z,67.03
2018-06-25T09:14:40.992Z,66.44
2018-06-25T09:17:10.061Z,66.76
2018-06-25T09:19:39.155Z,66.77
2018-06-25T09:22:08.236Z,67.03
2018-06-25T09:24:37.320Z,65.31
2018-06-25T09:27:06.432Z,65.44
2018-06-25T09:29:35.516Z,64.14
2018-06-25T09:32:04.590Z,65.45
2018-06-25T09:34:39.635Z,64.32
2018-06-25T09:37:08.753Z,65.40
2018-06-25T09:39:37.844Z,65.92
2018-06-25T09:42:07.000Z,66.08
2018-06-25T09:44:36.105Z,64.31
2018-06-25T09:47:05.192Z,63.84
2018-06-25T09:49:34.736Z,62.50
2018-06-25T09:52:04.438Z,62.82
2018-06-25T09:54:40.177Z,61.61
2018-06-25T09:57:09.218Z,61.88
2018-06-25T09:59:38.319Z,62.22
2018-06-25T10:02:07.404Z,61.22
2018-06-25T10:04:36.507Z,60.61
2018-06-25T10:07:05.739Z,60.34
2018-06-25T10:09:34.852Z,61.10
2018-06-25T10:12:03.955Z,60.55
2018-06-25T10:14:33.032Z,58.93
2018-06-25T10:17:02.141Z,59.90
2018-06-25T10:19:31.228Z,59.49
2018-06-25T10:22:00.340Z,58.92
2018-06-25T10:24:29.456Z,58.89
2018-06-25T10:26:58.572Z,58.48
2018-06-25T10:29:27.668Z,60.15
2018-06-25T10:31:56.772Z,59.52
2018-06-25T10:34:25.864Z,58.98
2018-06-25T10:36:54.984Z,59.81
2018-06-25T10:39:24.113Z,59.55
2018-06-25T10:41:53.216Z,58.88
2018-06-25T10:44:23.285Z,58.63
2018-06-25T10:46:52.427Z,58.17
2018-06-25T10:49:21.507Z,56.39
2018-06-25T10:51:50.629Z,57.32
2018-06-25T10:54:19.714Z,57.14
2018-06-25T10:56:48.800Z,58.15
2018-06-25T10:59:17.919Z,57.87
2018-06-25T11:01:47.008Z,57.40
2018-06-25T11:04:16.075Z,57.27
2018-06-25T11:06:45.176Z,58.78
2018-06-25T11:09:14.256Z,60.48
2018-06-25T11:11:43.408Z,60.64
2018-06-25T11:14:12.484Z,60.21
2018-06-25T11:16:41.572Z,59.68
2018-06-25T11:19:10.636Z,60.10
2018-06-25T11:21:39.751Z,59.57
2018-06-25T11:24:08.820Z,60.22
2018-06-25T11:26:38.133Z,60.36
2018-06-25T11:29:07.255Z,60.28
2018-06-25T11:31:36.319Z,61.22
2018-06-25T11:34:05.419Z,60.12
2018-06-25T11:36:34.496Z,59.75
2018-06-25T11:39:04.857Z,60.29
2018-06-25T11:41:33.936Z,59.03
2018-06-25T11:44:03.057Z,57.82
2018-06-25T11:46:32.136Z,57.20
2018-06-25T11:49:01.224Z,57.72
2018-06-25T11:51:30.328Z,57.88
2018-06-25T11:53:59.424Z,58.23
2018-06-25T11:56:28.515Z,58.12
2018-06-25T11:58:57.620Z,57.99
2018-06-25T12:01:26.720Z,57.27
2018-06-25T12:03:55.810Z,57.13
2018-06-25T12:06:24.872Z,56.58
2018-06-25T12:08:53.981Z,54.98
2018-06-25T12:11:23.063Z,57.33
2018-06-25T12:13:52.164Z,56.38
2018-06-25T12:16:21.229Z,57.12
2018-06-25T12:18:50.314Z,56.42
2018-06-25T12:21:19.398Z,55.70
2018-06-25T12:23:48.492Z,55.84
2018-06-25T12:26:17.557Z,56.92
2018-06-25T12:28:46.685Z,56.66
2018-06-25T12:31:15.799Z,57.81
2018-06-25T12:33:44.892Z,58.10
2018-06-25T12:36:14.028Z,57.07
2018-06-25T12:38:43.275Z,57.83
2018-06-25T12:41:12.404Z,57.67
2018-06-25T12:43:41.507Z,58.04
2018-06-25T12:46:10.705Z,58.30
2018-06-25T12:48:39.856Z,58.18
2018-06-25T12:51:08.953Z,57.12
2018-06-25T12:53:38.056Z,56.31
2018-06-25T12:56:07.156Z,56.52
2018-06-25T12:58:36.227Z,57.00
2018-06-25T13:01:05.428Z,57.61
2018-06-25T13:03:34.533Z,57.54
2018-06-25T13:06:03.724Z,57.81
2018-06-25T13:08:32.965Z,57.14
2018-06-25T13:11:02.192Z,58.02
2018-06-25T13:13:31.277Z,55.64
2018-06-25T13:16:00.387Z,55.01
2018-06-25T13:18:29.481Z,54.57
2018-06-25T13:20:58.580Z,54.98
2018-06-25T13:23:27.679Z,54.23
2018-06-25T13:25:56.833Z,53.49
2018-06-25T13:28:25.896Z,52.77
2018-06-25T13:30:54.999Z,52.83
2018-06-25T13:33:24.105Z,51.32
2018-06-25T13:35:53.188Z,51.11
2018-06-25T13:38:22.393Z,51.26
2018-06-25T13:40:51.479Z,52.03
2018-06-25T13:43:20.584Z,51.24
2018-06-25T13:45:49.809Z,52.28
2018-06-25T13:48:18.979Z,52.07
2018-06-25T13:50:48.028Z,51.81
2018-06-25T13:53:17.164Z,51.46
2018-06-25T13:55:46.256Z,51.11
2018-06-25T13:58:15.365Z,51.70
2018-06-25T14:00:44.455Z,52.37
2018-06-25T14:03:13.553Z,52.40
2018-06-25T14:05:42.632Z,52.45
2018-06-25T14:08:11.749Z,52.65
2018-06-25T14:10:40.824Z,50.15
2018-06-25T14:13:10.017Z,51.80
2018-06-25T14:15:39.153Z,51.80
2018-06-25T14:18:08.270Z,50.79
2018-06-25T14:20:37.498Z,49.68
2018-06-25T14:23:07.248Z,50.53
2018-06-25T14:25:41.785Z,49.53
2018-06-25T14:28:16.477Z,49.83
2018-06-25T14:30:50.949Z,50.27
2018-06-25T14:34:23.432Z,50.91
2018-06-25T14:36:52.740Z,51.32
2018-06-25T14:39:21.837Z,51.60
2018-06-25T14:41:50.913Z,51.64
2018-06-25T14:44:20.041Z,50.22
2018-06-25T14:46:49.113Z,51.20
2018-06-25T14:49:18.254Z,49.76
2018-06-25T14:51:47.457Z,49.90
2018-06-25T14:54:16.698Z,50.07
2018-06-25T14:56:46.364Z,50.25
2018-06-25T14:59:15.658Z,51.52
2018-06-25T15:01:44.753Z,50.54
2018-06-25T15:04:13.869Z,49.71
2018-06-25T15:06:42.964Z,50.27
2018-06-25T15:09:13.082Z,51.83
2018-06-25T15:11:43.503Z,51.17
2018-06-25T15:14:13.516Z,50.12
2018-06-25T15:16:42.625Z,50.23
2018-06-25T15:19:11.772Z,50.12
2018-06-25T15:21:40.945Z,50.48
2018-06-25T15:24:10.039Z,51.63
2018-06-25T15:26:39.252Z,51.70
2018-06-25T15:29:08.332Z,51.66
2018-06-25T15:31:37.444Z,50.89
2018-06-25T15:34:06.611Z,50.50
2018-06-25T15:36:35.751Z,51.27
2018-06-25T15:39:07.998Z,50.42
2018-06-25T15:41:37.244Z,50.62
2018-06-25T15:44:06.336Z,51.40
2018-06-25T15:46:35.462Z,50.57
2018-06-25T15:49:04.577Z,50.62
2018-06-25T15:51:33.704Z,51.15
2018-06-25T15:54:02.793Z,50.10
2018-06-25T15:56:31.909Z,50.79
2018-06-25T15:59:01.092Z,51.13
2018-06-25T16:01:30.200Z,50.43
2018-06-25T16:03:59.429Z,51.84
2018-06-25T16:06:28.572Z,52.09
2018-06-25T16:08:57.645Z,52.50
2018-06-25T16:11:26.944Z,51.66
2018-06-25T16:13:56.021Z,50.64
2018-06-25T16:16:25.216Z,51.57
2018-06-25T16:18:54.320Z,51.21
2018-06-25T16:21:23.443Z,49.97
2018-06-25T16:23:53.288Z,49.60
2018-06-25T16:26:22.396Z,50.50
2018-06-25T16:28:51.560Z,51.56
2018-06-25T16:31:20.888Z,50.75
2018-06-25T16:33:49.996Z,51.51
2018-06-25T16:36:19.073Z,50.47
2018-06-25T16:38:48.291Z,50.31
2018-06-25T16:41:17.377Z,47.92
2018-06-25T16:43:46.471Z,49.23
2018-06-25T16:46:15.593Z,49.10
2018-06-25T16:48:44.753Z,49.98
2018-06-25T16:51:13.932Z,50.24
2018-06-25T16:53:43.063Z,49.96
2018-06-25T16:56:12.171Z,48.79
2018-06-25T16:58:41.288Z,49.13
2018-06-25T17:01:10.424Z,48.56
2018-06-25T17:03:39.525Z,49.46
2018-06-25T17:06:08.653Z,49.17
2018-06-25T17:08:37.752Z,49.82
2018-06-25T17:11:06.829Z,50.31
2018-06-25T17:13:36.646Z,51.14
2018-06-25T17:16:05.741Z,49.02
2018-06-25T17:18:35.652Z,50.34
2018-06-25T17:21:04.744Z,50.89
2018-06-25T17:23:34.282Z,50.68
2018-06-25T17:26:03.449Z,50.82
2018-06-25T17:28:32.504Z,50.89
2018-06-25T17:31:02.036Z,51.16
2018-06-25T17:33:31.142Z,50.32
2018-06-25T17:36:00.318Z,50.57
2018-06-25T17:38:29.460Z,51.23
2018-06-25T17:40:58.554Z,51.29
2018-06-25T17:43:27.677Z,50.23
2018-06-25T17:45:56.769Z,50.74
2018-06-25T17:48:26.092Z,51.39
2018-06-25T17:50:55.096Z,51.07
2018-06-25T17:53:24.321Z,52.05
2018-06-25T17:55:53.456Z,51.69
2018-06-25T17:58:22.613Z,52.85
2018-06-25T18:00:51.801Z,52.50
2018-06-25T18:03:21.636Z,52.81
2018-06-25T18:05:50.720Z,52.67
2018-06-25T18:08:19.983Z,53.27
2018-06-25T18:10:49.096Z,52.61
2018-06-25T18:13:18.177Z,52.94
2018-06-25T18:15:47.296Z,53.04
2018-06-25T18:18:16.388Z,53.34
2018-06-25T18:20:45.551Z,53.36
2018-06-25T18:23:14.588Z,54.01
2018-06-25T18:25:43.697Z,53.76
2018-06-25T18:28:13.579Z,53.47
2018-06-25T18:30:42.651Z,53.35
2018-06-25T18:33:11.752Z,53.76
2018-06-25T18:35:40.856Z,54.43
2018-06-25T18:38:10.021Z,54.76
2018-06-25T18:40:39.257Z,54.90
2018-06-25T18:43:08.332Z,55.04
2018-06-25T18:45:37.457Z,55.87
2018-06-25T18:48:06.924Z,55.80
2018-06-25T18:50:36.041Z,56.21
2018-06-25T18:53:05.904Z,56.18
2018-06-25T18:55:35.041Z,57.19
2018-06-25T18:58:05.089Z,57.14
2018-06-25T19:00:34.257Z,56.61
2018-06-25T19:03:03.437Z,58.07
2018-06-25T19:05:32.676Z,57.38
2018-06-25T19:08:01.821Z,57.92
2018-06-25T19:10:31.240Z,58.23
2018-06-25T19:13:00.623Z,57.87
2018-06-25T19:15:29.744Z,59.35
2018-06-25T19:17:58.823Z,59.07
2018-06-25T19:20:27.895Z,59.26
2018-06-25T19:22:56.996Z,60.21
2018-06-25T19:25:26.073Z,60.04
2018-06-25T19:27:55.184Z,59.81
2018-06-25T19:30:24.256Z,60.22
2018-06-25T19:32:53.388Z,60.47
2018-06-25T19:35:22.456Z,60.73
2018-06-25T19:37:51.560Z,60.66
2018-06-25T19:40:20.816Z,61.86
2018-06-25T19:42:50.520Z,61.29
2018-06-25T19:45:19.625Z,61.96
2018-06-25T19:47:48.728Z,61.49
2018-06-25T19:50:17.805Z,62.34
2018-06-25T19:52:46.928Z,61.68
2018-06-25T19:55:16.003Z,62.28
2018-06-25T19:57:45.101Z,62.22
2018-06-25T20:00:14.204Z,62.34
2018-06-25T20:02:43.391Z,62.92
2018-06-25T20:05:12.512Z,63.54
2018-06-25T20:07:42.513Z,62.79
2018-06-25T20:10:11.597Z,63.50
2018-06-25T20:12:40.699Z,63.29
2018-06-25T20:15:09.996Z,63.62
2018-06-25T20:17:39.036Z,64.09
2018-06-25T20:20:08.420Z,64.24
2018-06-25T20:22:37.545Z,63.96
2018-06-25T20:25:08.144Z,63.69
2018-06-25T20:27:37.342Z,63.37
2018-06-25T20:30:06.856Z,64.21
2018-06-25T20:32:36.175Z,63.54
2018-06-25T20:35:07.296Z,63.97
2018-06-25T20:37:36.395Z,64.00
2018-06-25T20:40:05.481Z,64.32
2018-06-25T20:42:34.576Z,64.80
2018-06-25T20:45:03.747Z,64.63
2018-06-25T20:47:32.840Z,64.70
2018-06-25T20:50:01.988Z,64.62
2018-06-25T20:52:31.185Z,65.86
2018-06-25T20:55:00.284Z,65.59
2018-06-25T20:57:29.478Z,65.86
2018-06-25T20:59:58.584Z,65.88
2018-06-25T21:02:27.668Z,66.00
2018-06-25T21:04:56.768Z,66.01
2018-06-25T21:07:25.923Z,66.71
2018-06-25T21:09:55.044Z,66.31
2018-06-25T21:12:24.145Z,66.85
2018-06-25T21:14:53.351Z,66.47
2018-06-25T21:17:22.521Z,66.82
2018-06-25T21:19:51.728Z,66.89
2018-06-25T21:22:20.812Z,66.59
2018-06-25T21:24:50.040Z,66.45
2018-06-25T21:27:19.168Z,66.28
2018-06-25T21:29:48.280Z,66.14
2018-06-25T21:32:17.386Z,66.61
2018-06-25T21:34:46.516Z,66.68
2018-06-25T21:37:15.596Z,66.33
2018-06-25T21:39:44.711Z,66.01
2018-06-25T21:42:13.864Z,65.89
2018-06-25T21:44:42.972Z,66.46
2018-06-25T21:47:12.085Z,66.25
2018-06-25T21:49:41.628Z,66.21
2018-06-25T21:52:10.746Z,66.41
2018-06-25T21:54:39.836Z,66.58
2018-06-25T21:57:08.931Z,66.88
2018-06-25T21:59:38.016Z,67.12
2018-06-25T22:02:07.145Z,66.42
2018-06-25T22:04:36.240Z,66.73
2018-06-25T22:07:05.341Z,66.98
2018-06-25T22:09:34.424Z,66.97
2018-06-25T22:12:03.533Z,66.75
2018-06-25T22:14:32.608Z,67.03
2018-06-25T22:17:01.750Z,67.31
2018-06-25T22:19:30.827Z,67.53
2018-06-25T22:21:59.945Z,68.02
2018-06-25T22:24:29.020Z,67.86
2018-06-25T22:26:58.135Z,67.59
2018-06-25T22:29:27.221Z,68.04
2018-06-25T22:31:56.329Z,68.58
2018-06-25T22:34:25.444Z,68.02
2018-06-25T22:36:54.515Z,68.44
2018-06-25T22:39:23.599Z,68.94
2018-06-25T22:41:52.709Z,67.85
2018-06-25T22:44:21.784Z,69.16
2018-06-25T22:46:50.888Z,68.79
2018-06-25T22:49:19.964Z,69.21
2018-06-25T22:51:49.096Z,69.47
2018-06-25T22:54:18.176Z,69.17
2018-06-25T22:56:47.317Z,69.07
2018-06-25T22:59:16.405Z,68.81
2018-06-25T23:01:45.548Z,69.19
2018-06-25T23:04:14.679Z,70.00
2018-06-25T23:06:43.825Z,70.64
2018-06-25T23:09:13.080Z,71.58
2018-06-25T23:11:42.190Z,71.56
2018-06-25T23:14:11.276Z,71.97
2018-06-25T23:16:40.393Z,72.16
2018-06-25T23:19:09.497Z,72.52
2018-06-25T23:21:38.586Z,73.12
2018-06-25T23:24:08.001Z,73.20
2018-06-25T23:26:37.726Z,73.68
2018-06-25T23:29:06.841Z,73.43
2018-06-25T23:31:35.937Z,73.22
2018-06-25T23:34:05.046Z,73.14
2018-06-25T23:36:34.139Z,72.21
2018-06-25T23:39:03.420Z,72.60
2018-06-25T23:41:32.509Z,72.10
2018-06-25T23:44:01.624Z,72.20
2018-06-25T23:46:30.765Z,72.46
2018-06-25T23:48:59.869Z,72.79
2018-06-25T23:51:28.951Z,72.40
2018-06-25T23:53:58.076Z,71.77
2018-06-25T23:56:27.165Z,71.94
2018-06-25T23:58:56.276Z,72.04
